Detall de PIREP

Printer-friendly versionPDF version

[2011/05/11 08:32:00]
Flight IATA:CT1005
Pilot Number:011
Company ICAO:CAT
Aircraft Type:F28/A
PAX:85
Departing Airport: LEMG
Destination Airport: LPPR
Alternate Airport:LPPT
Online: VATSIM
Route:SVL UM744 BEJ UZ7 MAGUM UP600 FTM
Flight Level:F290
No Slew and time accel
No pause
Crash detect
Detect pilot in Cockpit between each 30 and 45 minutes
08:32 Zero fuel Weight: 60656 Lbs, Fuel Weight: 10264 Lbs
08:32 VATSIM:LEMG 110800Z 31001KT 9999 FEW030 18/14 Q1021 NOSIG
08:32 VATSIM:LPPR 110800Z VRB02KT CAVOK 20/16 Q1019
08:37 Parking Brakes off
08:43 Take-off
08:43 Take off Weight: 70441 Lbs
08:43 Wind: 305º @ 002 Knots Heading: 311º
08:43 POS N36º 40´ 33´´ W004º 30´ 02´´
08:43 Gear Up: 163 Knots
08:43 Flaps:2 at 163 Knots
08:44 Flaps:1 at 209 Knots
08:44 Flaps:0 at 211 Knots
08:58 Wind:085º@033 Knots Heading: 336º Ground Speed: 414 Knots Altitude 26820 ft
09:06 TOC
09:06 Fuel Weight: 7103 Lb
09:30 TOD
09:30 Fuel Weight: 5333 Lb
09:49 Flaps:1 at 219 Knots
09:50 Flaps:2 at 205 Knots
09:53 Flaps:3 at 181 Knots
09:53 Gear Down: 177 Knots
09:54 Flaps:4 at 160 Knots
09:56 Flaps:5 at 150 Knots
09:59 TouchDown:Rate -239 ft/min Speed: 109 Knots
09:59 VATSIM:LPPR 110930Z VRB02KT CAVOK 23/16 Q1019
09:59 Land
09:59 Wind:347º@002 Knots
09:59 Heading: 171º
09:59 Flight Duration: 01:16
09:59 Landing Weight: 64313 Lbs
09:59 POS N41º 14´ 53´´ W008º 40´ 52´´
10:02 Parking brakes on
10:02 Block to Block Duration: 01:25
10:02 Final Fuel: 3544 Lbls
10:02 Spent Fuel: 6719 Lbls
10:02 Flight Length: 89 NM
10:02 TOD Land Length: 00 NM

Exportar CSV

Powered by Drupal - Modified by Danger4k